Time;durP1;ratioP1;P1;durP2;ratioP2;P2;SDS_P1;SDS_P2;PMS_P1;PMS_P2;Temp;Humidity;BMP_temperature;BMP_pressure;BME280_temperature;BME280_humidity;BME280_pressure;Samples;Min_cycle;Max_cycle;Signal;HPM_P1;HPM_P2
2022/01/24 00:01:36;;;;;;;;;;;;;;;5.32;80.45;103497.75;5091771;28;19931;-74
2022/01/24 00:04:03;;;;;;;;;;;;;;;5.34;80.69;103501.25;5073324;28;19917;-73
2022/01/24 00:06:29;;;;;;;;;;;;;;;5.39;80.83;103510.06;5074722;28;19959;-72
2022/01/24 00:08:54;;;;;;;;;;;;;;;5.39;81.60;103510.06;5077123;28;20300;-73
2022/01/24 00:11:24;;;;;;;;;;;;;;;5.38;80.29;103508.31;5072957;28;19923;-73
2022/01/24 00:27:14;;;;;;;;;;;;;;;5.37;80.24;103495.22;5071917;28;19921;-89
2022/01/24 00:29:40;;;;;;;;;;;;;;;5.32;80.06;103495.13;5077690;28;19930;-78
2022/01/24 00:32:06;;;;;;;;;;;;;;;5.33;80.33;103494.28;5074568;28;20444;-76
2022/01/24 00:34:32;;;;;;;;;;;;;;;5.35;80.43;103499.53;5067605;28;19920;-76
2022/01/24 00:36:57;;;;;;;;;;;;;;;5.39;81.04;103499.63;5081447;28;19917;-80
2022/01/24 00:39:23;;;;;;;;;;;;;;;5.40;80.38;103497.88;5069135;28;20007;-80
2022/01/24 00:55:12;;;;;;;;;;;;;;;5.42;81.17;103499.66;5064346;28;19924;-79
2022/01/24 00:57:38;;;;;;;;;;;;;;;5.46;80.17;103491.91;5068518;28;19970;-75
2022/01/24 01:00:04;;;;;;;;;;;;;;;5.40;79.77;103490.94;5068025;28;20632;-76
2022/01/24 01:02:29;;;;;;;;;;;;;;;5.40;81.38;103490.94;5068002;28;20034;-77
2022/01/24 01:18:18;;;;;;;;;;;;;;;5.47;81.21;103497.13;5066599;28;19936;-79
2022/01/24 01:21:07;;;;;;;;;;;;;;;5.45;80.88;103490.16;5069632;28;19916;-79
2022/01/24 01:23:31;;;;;;;;;;;;;;;5.47;81.75;103497.13;5067130;28;20034;-74
2022/01/24 01:25:59;;;;;;;;;;;;;;;5.49;81.34;103485.00;5067800;28;19943;-81
2022/01/24 01:28:26;;;;;;;;;;;;;;;5.52;81.86;103487.69;5049959;28;20011;-73
2022/01/24 01:30:55;;;;;;;;;;;;;;;5.52;80.84;103481.56;5069133;28;19921;-74
2022/01/24 01:57:42;;;;;;;;;;;;;;;5.44;80.59;103483.19;5090136;28;19920;-81
2022/01/24 02:00:09;;;;;;;;;;;;;;;5.35;80.54;103474.34;5090282;28;20277;-82
2022/01/24 02:02:34;;;;;;;;;;;;;;;5.29;80.37;103471.66;5088923;28;19923;-83
2022/01/24 02:05:00;;;;;;;;;;;;;;;5.24;80.77;103475.88;5090167;28;19924;-82
2022/01/24 02:07:25;;;;;;;;;;;;;;;5.25;81.12;103472.44;5090172;28;19983;-82
2022/01/24 02:09:50;;;;;;;;;;;;;;;5.26;81.12;103472.44;5091318;28;19916;-81
2022/01/24 02:12:18;;;;;;;;;;;;;;;5.23;81.16;103475.03;5091006;28;20476;-82
2022/01/24 02:25:44;;;;;;;;;;;;;;;5.14;81.79;103468.75;5084267;28;19943;-80
2022/01/24 02:28:11;;;;;;;;;;;;;;;5.19;82.57;103470.59;5082242;28;19920;-80
2022/01/24 02:33:18;;;;;;;;;;;;;;;5.10;82.22;103471.28;5089004;28;20426;-80
2022/01/24 02:35:43;;;;;;;;;;;;;;;5.15;82.10;103470.50;5088143;28;20011;-73
2022/01/24 02:48:52;;;;;;;;;;;;;;;4.99;82.64;103464.13;5083551;28;19939;-83
2022/01/24 02:53:57;;;;;;;;;;;;;;;4.96;83.08;103472.78;5100534;27;19923;-84
2022/01/24 02:56:23;;;;;;;;;;;;;;;4.93;82.66;103467.50;5087367;28;19916;-84
2022/01/24 02:58:48;;;;;;;;;;;;;;;4.94;83.27;103467.50;5087972;28;20288;-84
2022/01/24 03:01:13;;;;;;;;;;;;;;;4.95;83.24;103463.19;5088614;28;20011;-82
2022/01/24 03:03:40;;;;;;;;;;;;;;;5.00;82.91;103461.53;5089700;28;19924;-75
2022/01/24 03:06:05;;;;;;;;;;;;;;;4.99;83.17;103466.72;5085962;28;19924;-73
2022/01/24 03:08:31;;;;;;;;;;;;;;;5.06;84.08;103459.06;5087087;28;19968;-73
2022/01/24 03:10:58;;;;;;;;;;;;;;;5.10;83.19;103460.88;5089397;28;19917;-76
2022/01/24 03:16:06;;;;;;;;;;;;;;;5.02;82.00;103459.84;5090469;28;20384;-81
2022/01/24 03:18:32;;;;;;;;;;;;;;;5.07;82.13;103457.31;5089250;28;19981;-82
2022/01/24 03:20:57;;;;;;;;;;;;;;;5.05;82.26;103453.81;5085771;28;19992;-73
2022/01/24 03:23:23;;;;;;;;;;;;;;;5.05;82.12;103448.59;5085710;28;19916;-73
2022/01/24 03:25:49;;;;;;;;;;;;;;;5.02;82.71;103453.75;5087130;28;19916;-73
2022/01/24 03:28:14;;;;;;;;;;;;;;;4.99;83.70;103451.97;5085395;28;20274;-75
2022/01/24 03:30:40;;;;;;;;;;;;;;;5.01;84.39;103449.41;5103501;28;20712;-74
2022/01/24 03:33:06;;;;;;;;;;;;;;;5.03;83.70;103452.91;5107434;28;19927;-73
2022/01/24 03:35:32;;;;;;;;;;;;;;;5.02;83.04;103453.75;5093447;28;19920;-72
2022/01/24 03:37:57;;;;;;;;;;;;;;;4.94;81.86;103446.66;5087785;28;19931;-73
2022/01/24 03:40:22;;;;;;;;;;;;;;;4.90;80.37;103436.16;5084810;28;19923;-73
2022/01/24 03:42:48;;;;;;;;;;;;;;;4.90;80.28;103430.94;5087801;28;19920;-81
2022/01/24 03:45:15;;;;;;;;;;;;;;;4.89;80.70;103437.00;5089224;28;19920;-81
2022/01/24 03:47:45;;;;;;;;;;;;;;;4.94;82.06;103438.84;5089548;28;20056;-73
2022/01/24 03:50:15;;;;;;;;;;;;;;;5.01;80.02;103439.84;5088352;28;20361;-78
2022/01/24 03:52:40;;;;;;;;;;;;;;;5.01;80.94;103431.16;5091678;28;20262;-82
2022/01/24 03:55:06;;;;;;;;;;;;;;;4.97;79.02;103422.41;5086716;28;19962;-73
2022/01/24 03:57:32;;;;;;;;;;;;;;;4.95;79.21;103419.78;5086129;28;19927;-74
2022/01/24 03:59:57;;;;;;;;;;;;;;;4.91;79.13;103414.47;5088357;28;19961;-73
2022/01/24 04:02:24;;;;;;;;;;;;;;;4.87;79.18;103420.47;5075859;28;19922;-75
2022/01/24 04:04:50;;;;;;;;;;;;;;;4.89;79.06;103419.66;5088848;28;19952;-72
2022/01/24 04:07:16;;;;;;;;;;;;;;;4.93;79.55;103426.69;5086221;28;19962;-75
2022/01/24 04:09:42;;;;;;;;;;;;;;;4.98;79.63;103431.09;5086986;28;19951;-73
2022/01/24 04:12:09;;;;;;;;;;;;;;;5.04;80.68;103439.91;5084742;28;19924;-74
2022/01/24 04:14:40;;;;;;;;;;;;;;;5.11;80.96;103444.38;5086508;28;19924;-74
2022/01/24 04:21:56;;;;;;;;;;;;;;;5.06;79.50;103437.31;5088362;28;20381;-78
2022/01/24 04:24:24;;;;;;;;;;;;;;;5.10;80.47;103423.53;5084803;28;19923;-74
2022/01/24 04:26:49;;;;;;;;;;;;;;;5.07;80.41;103426.91;5087462;28;19920;-74
2022/01/24 04:29:14;;;;;;;;;;;;;;;5.07;80.54;103431.28;5085506;28;20001;-73
2022/01/24 04:31:40;;;;;;;;;;;;;;;5.13;81.91;103436.56;5084783;28;19924;-73
2022/01/24 04:34:05;;;;;;;;;;;;;;;5.13;80.98;103433.09;5084325;28;20393;-74
2022/01/24 04:36:31;;;;;;;;;;;;;;;5.05;80.62;103431.25;5068734;28;20435;-74
2022/01/24 04:38:56;;;;;;;;;;;;;;;5.03;80.69;103435.56;5066280;28;19925;-74
2022/01/24 04:41:26;;;;;;;;;;;;;;;4.99;81.52;103428.50;5080673;28;19916;-74
2022/01/24 04:43:57;;;;;;;;;;;;;;;5.00;81.56;103432.88;5086139;28;19942;-74
2022/01/24 04:56:35;;;;;;;;;;;;;;;4.96;79.92;103415.47;5089606;28;20308;-77
2022/01/24 04:59:00;;;;;;;;;;;;;;;5.13;77.50;103396.63;5090928;28;19920;-76
2022/01/24 05:01:26;;;;;;;;;;;;;;;5.02;78.53;103399.91;5089906;28;19966;-75
2022/01/24 05:03:52;;;;;;;;;;;;;;;4.89;77.91;103400.53;5092947;28;19986;-79
2022/01/24 05:06:17;;;;;;;;;;;;;;;4.84;78.54;103399.59;5092682;28;20284;-81
2022/01/24 05:08:42;;;;;;;;;;;;;;;4.77;78.37;103401.19;5092002;28;20426;-81
2022/01/24 05:11:12;;;;;;;;;;;;;;;4.74;78.80;103401.13;5090574;28;19920;-74
2022/01/24 05:24:05;;;;;;;;;;;;;;;4.80;78.36;103406.44;5091583;28;19970;-81
2022/01/24 05:26:30;;;;;;;;;;;;;;;4.78;77.99;103408.16;5093945;28;19924;-80
2022/01/24 05:28:55;;;;;;;;;;;;;;;4.77;78.47;103409.88;5091769;28;19916;-81
2022/01/24 05:31:21;;;;;;;;;;;;;;;4.77;78.16;103398.59;5091695;28;19987;-80
2022/01/24 05:33:47;;;;;;;;;;;;;;;4.79;78.51;103404.72;5090606;28;20385;-74
2022/01/24 05:36:12;;;;;;;;;;;;;;;4.83;78.93;103406.50;5089213;28;20004;-74
2022/01/24 05:38:39;;;;;;;;;;;;;;;4.89;79.08;103404.03;5089073;28;19924;-74
2022/01/24 05:41:04;;;;;;;;;;;;;;;4.96;78.75;103405.03;5088156;28;20442;-74
2022/01/24 05:43:30;;;;;;;;;;;;;;;4.97;80.45;103417.19;5089682;28;19940;-74
2022/01/24 05:45:55;;;;;;;;;;;;;;;4.95;79.37;103414.56;5091219;28;19931;-74
2022/01/24 05:48:20;;;;;;;;;;;;;;;4.91;78.85;103411.88;5088767;28;20396;-74
2022/01/24 05:50:45;;;;;;;;;;;;;;;4.88;78.41;103411.81;5089114;27;19920;-74
2022/01/24 05:53:11;;;;;;;;;;;;;;;4.91;78.82;103417.94;5090176;28;20228;-83
2022/01/24 05:55:36;;;;;;;;;;;;;;;4.89;78.62;103416.16;5089837;28;19923;-74
2022/01/24 05:58:02;;;;;;;;;;;;;;;4.89;79.27;103424.00;5088922;28;20008;-73
2022/01/24 06:00:27;;;;;;;;;;;;;;;4.83;78.67;103416.06;5089074;28;19920;-83
2022/01/24 06:02:52;;;;;;;;;;;;;;;4.87;77.81;103412.66;5089151;28;19916;-74
2022/01/24 06:05:18;;;;;;;;;;;;;;;4.94;76.73;103410.19;5089541;28;19970;-77
2022/01/24 06:07:43;;;;;;;;;;;;;;;4.91;76.55;103407.53;5090587;28;19916;-83
2022/01/24 06:10:09;;;;;;;;;;;;;;;4.90;77.56;103403.19;5090714;28;19920;-84
2022/01/24 06:12:34;;;;;;;;;;;;;;;4.94;77.99;103412.81;5092735;28;19965;-84
2022/01/24 06:15:00;;;;;;;;;;;;;;;4.93;77.84;103404.97;5090620;28;19939;-83
2022/01/24 06:17:25;;;;;;;;;;;;;;;4.95;78.76;103408.50;5075242;28;19920;-84
2022/01/24 06:19:50;;;;;;;;;;;;;;;5.00;78.61;103417.25;5069815;28;19956;-82
2022/01/24 06:22:16;;;;;;;;;;;;;;;4.91;77.97;103409.28;5070500;28;19917;-78
2022/01/24 06:24:41;;;;;;;;;;;;;;;4.98;77.46;103403.31;5085489;28;19916;-79
2022/01/24 06:27:06;;;;;;;;;;;;;;;4.91;78.08;103402.31;5090981;28;19965;-77
2022/01/24 06:29:32;;;;;;;;;;;;;;;4.95;76.55;103403.28;5092586;28;20035;-79
2022/01/24 06:31:57;;;;;;;;;;;;;;;4.92;77.06;103409.28;5090522;28;20346;-80
2022/01/24 06:34:22;;;;;;;;;;;;;;;4.99;76.37;103410.28;5090807;28;19962;-80
2022/01/24 06:36:48;;;;;;;;;;;;;;;4.90;77.04;103416.22;5088837;28;19969;-73
2022/01/24 06:39:14;;;;;;;;;;;;;;;4.85;76.53;103410.03;5087908;28;19947;-73
2022/01/24 06:41:42;;;;;;;;;;;;;;;4.85;77.03;103420.44;5088721;28;19916;-73
2022/01/24 06:44:07;;;;;;;;;;;;;;;4.84;76.71;103420.44;5087724;28;19916;-73
2022/01/24 06:46:33;;;;;;;;;;;;;;;4.86;77.18;103413.50;5089495;28;20289;-74
2022/01/24 06:48:58;;;;;;;;;;;;;;;4.88;77.10;103417.00;5087675;28;19924;-74
2022/01/24 06:51:23;;;;;;;;;;;;;;;4.85;77.21;103415.25;5090042;28;19924;-82
2022/01/24 06:53:50;;;;;;;;;;;;;;;4.85;77.25;103424.78;5088527;28;19923;-80
2022/01/24 06:56:16;;;;;;;;;;;;;;;4.96;76.33;103425.88;5090333;28;19920;-82
2022/01/24 06:58:41;;;;;;;;;;;;;;;4.85;76.83;103433.47;5090153;28;20049;-82
2022/01/24 07:01:07;;;;;;;;;;;;;;;4.92;76.73;103424.06;5089852;28;20206;-76
2022/01/24 07:03:33;;;;;;;;;;;;;;;4.91;76.76;103432.72;5091940;28;19920;-82
2022/01/24 07:05:58;;;;;;;;;;;;;;;4.98;76.43;103436.31;5089673;28;19920;-83
2022/01/24 07:08:23;;;;;;;;;;;;;;;4.87;76.84;103436.09;5089495;28;19927;-82
2022/01/24 07:10:49;;;;;;;;;;;;;;;4.91;76.74;103443.13;5086871;28;19922;-73
2022/01/24 07:13:14;;;;;;;;;;;;;;;4.94;75.98;103432.78;5087068;28;20292;-73
2022/01/24 07:21:03;;;;;;;;;;;;;;;4.80;76.55;103442.91;5085105;28;19920;-75
2022/01/24 07:23:28;;;;;;;;;;;;;;;4.79;77.35;103434.22;5089998;28;19916;-74
2022/01/24 07:25:54;;;;;;;;;;;;;;;4.79;77.33;103442.03;5088217;28;19916;-73
2022/01/24 07:28:19;;;;;;;;;;;;;;;4.85;78.38;103448.25;5084815;28;19920;-74
2022/01/24 07:30:45;;;;;;;;;;;;;;;4.86;77.95;103445.66;5089538;28;20442;-75
2022/01/24 07:33:11;;;;;;;;;;;;;;;4.78;77.41;103447.25;5087289;28;19924;-75
2022/01/24 07:35:37;;;;;;;;;;;;;;;4.76;77.28;103449.78;5081646;28;19928;-76
2022/01/24 07:38:05;;;;;;;;;;;;;;;4.71;77.68;103445.34;5066179;28;19955;-73
2022/01/24 07:40:31;;;;;;;;;;;;;;;4.71;78.03;103443.63;5087895;28;20647;-73
2022/01/24 07:43:09;;;;;;;;;;;;;;;4.69;77.47;103440.09;5085814;28;19916;-74
2022/01/24 07:45:35;;;;;;;;;;;;;;;4.68;77.91;103440.97;5086275;28;20369;-73
2022/01/24 07:48:00;;;;;;;;;;;;;;;4.72;78.86;103448.00;5086484;28;19924;-74
2022/01/24 07:50:26;;;;;;;;;;;;;;;4.75;77.66;103455.84;5087683;28;19920;-83
2022/01/24 07:52:52;;;;;;;;;;;;;;;4.76;78.30;103455.00;5091392;28;20208;-83
2022/01/24 07:55:17;;;;;;;;;;;;;;;4.79;77.48;103449.84;5068900;28;19993;-83
2022/01/24 07:57:43;;;;;;;;;;;;;;;4.78;78.12;103455.06;5067756;28;20519;-81
2022/01/24 08:00:10;;;;;;;;;;;;;;;4.79;78.14;103447.25;5067672;28;19927;-81
2022/01/24 08:02:36;;;;;;;;;;;;;;;4.76;77.93;103459.34;5090283;28;19973;-77
2022/01/24 08:05:01;;;;;;;;;;;;;;;4.71;78.41;103456.66;5086282;28;19916;-79
2022/01/24 08:07:26;;;;;;;;;;;;;;;4.76;78.28;103459.34;5086422;28;19974;-79
2022/01/24 08:09:52;;;;;;;;;;;;;;;4.84;79.27;103467.31;5088520;28;19923;-76
2022/01/24 08:12:18;;;;;;;;;;;;;;;4.87;79.01;103469.97;5094012;28;20638;-77
2022/01/24 08:14:43;;;;;;;;;;;;;;;4.87;79.41;103470.84;5091289;27;20457;-79
2022/01/24 08:17:08;;;;;;;;;;;;;;;4.88;78.83;103470.00;5088036;28;20056;-78
2022/01/24 08:19:34;;;;;;;;;;;;;;;4.87;79.64;103469.97;5094518;28;20304;-78
2022/01/24 08:21:59;;;;;;;;;;;;;;;4.89;79.22;103476.09;5085599;28;19943;-78
2022/01/24 08:24:24;;;;;;;;;;;;;;;4.93;78.17;103467.50;5088247;28;20331;-79
2022/01/24 08:26:50;;;;;;;;;;;;;;;4.91;78.52;103466.56;5091271;28;19917;-78
2022/01/24 08:29:15;;;;;;;;;;;;;;;4.91;78.11;103466.56;5091139;28;19948;-79
2022/01/24 08:31:41;;;;;;;;;;;;;;;4.87;78.55;103478.66;5106384;28;19985;-78
2022/01/24 08:34:06;;;;;;;;;;;;;;;4.94;78.68;103470.13;5108309;28;20034;-79
2022/01/24 08:36:31;;;;;;;;;;;;;;;4.93;79.01;103477.91;5089971;28;19916;-77
2022/01/24 08:39:04;;;;;;;;;;;;;;;4.96;78.88;103475.38;5105799;28;19924;-78
2022/01/24 08:41:40;;;;;;;;;;;;;;;4.83;79.04;103466.41;5111254;28;20294;-79
2022/01/24 08:46:47;;;;;;;;;;;;;;;4.78;79.62;103481.97;5098558;28;20330;-87
2022/01/24 08:49:12;;;;;;;;;;;;;;;4.80;80.24;103480.28;5100529;27;19920;-86
2022/01/24 08:51:38;;;;;;;;;;;;;;;4.84;79.96;103486.41;5101523;28;20292;-85
2022/01/24 08:54:04;;;;;;;;;;;;;;;4.86;80.35;103487.31;5099356;28;19988;-84
2022/01/24 08:56:30;;;;;;;;;;;;;;;4.90;80.46;103480.44;5109992;27;19973;-87
2022/01/24 08:58:55;;;;;;;;;;;;;;;4.80;80.38;103488.09;5115527;28;20389;-82
2022/01/24 09:01:20;;;;;;;;;;;;;;;4.85;80.29;103490.78;5101341;28;19932;-84
2022/01/24 09:03:45;;;;;;;;;;;;;;;4.81;81.23;103496.75;5104743;28;19916;-83
2022/01/24 09:06:11;;;;;;;;;;;;;;;4.79;81.86;103495.88;5105192;27;19984;-83
2022/01/24 09:08:37;;;;;;;;;;;;;;;4.77;80.89;103498.44;5094228;28;19916;-84
2022/01/24 09:11:03;;;;;;;;;;;;;;;4.75;81.77;103504.47;5112561;27;19915;-84
2022/01/24 09:13:30;;;;;;;;;;;;;;;4.75;81.33;103500.13;5099670;28;19916;-83
2022/01/24 09:15:56;;;;;;;;;;;;;;;4.79;80.25;103486.31;5097335;27;20416;-83
2022/01/24 09:18:21;;;;;;;;;;;;;;;4.86;80.37;103491.66;5095987;27;19963;-84
2022/01/24 09:20:50;;;;;;;;;;;;;;;4.88;80.33;103487.34;5093513;28;19922;-84
2022/01/24 09:23:15;;;;;;;;;;;;;;;4.89;80.95;103496.94;5093653;28;19963;-84
2022/01/24 09:25:40;;;;;;;;;;;;;;;4.83;80.44;103496.81;5096665;28;19955;-83
2022/01/24 09:28:06;;;;;;;;;;;;;;;4.90;80.73;103490.88;5103956;28;19916;-85
2022/01/24 09:30:31;;;;;;;;;;;;;;;4.87;81.43;103490.81;5109558;27;19999;-85
2022/01/24 09:32:56;;;;;;;;;;;;;;;4.90;80.61;103493.47;5105516;27;19972;-84
2022/01/24 09:35:22;;;;;;;;;;;;;;;5.00;80.07;103494.56;5106033;28;19924;-82
2022/01/24 09:37:48;;;;;;;;;;;;;;;4.78;80.24;103500.19;5093881;28;20373;-85
2022/01/24 09:40:15;;;;;;;;;;;;;;;4.91;80.08;103496.09;5089997;28;20026;-83
2022/01/24 09:42:41;;;;;;;;;;;;;;;4.95;79.27;103495.31;5094243;28;19923;-83
2022/01/24 09:45:07;;;;;;;;;;;;;;;4.93;78.39;103485.72;5093590;28;19996;-82
2022/01/24 09:47:32;;;;;;;;;;;;;;;4.82;78.33;103484.63;5092831;28;19927;-83
2022/01/24 09:49:58;;;;;;;;;;;;;;;4.99;78.05;103483.22;5093081;28;20400;-81
2022/01/24 09:52:24;;;;;;;;;;;;;;;4.89;78.34;103481.28;5092234;28;19923;-83
2022/01/24 09:54:49;;;;;;;;;;;;;;;4.82;78.53;103489.84;5093356;28;19916;-81
2022/01/24 09:57:14;;;;;;;;;;;;;;;4.90;77.85;103480.44;5093422;28;19927;-81
2022/01/24 09:59:40;;;;;;;;;;;;;;;4.86;78.05;103481.22;5095609;28;19950;-83
2022/01/24 10:02:05;;;;;;;;;;;;;;;4.90;77.73;103478.75;5092686;28;20003;-84
2022/01/24 10:04:31;;;;;;;;;;;;;;;4.92;77.51;103479.63;5092123;28;20534;-83
2022/01/24 10:07:12;;;;;;;;;;;;;;;4.92;77.01;103478.75;5093791;28;19916;-83
2022/01/24 10:09:54;;;;;;;;;;;;;;;4.95;78.07;103476.22;5091568;28;19916;-83
2022/01/24 10:16:24;;;;;;;;;;;;;;;5.03;77.96;103478.94;5091929;28;19924;-83
2022/01/24 10:18:03;;;;;;;;;;;;;;;5.15;76.02;103473.97;5092416;28;19924;-84
2022/01/24 10:20:30;;;;;;;;;;;;;;;5.31;74.75;103469.06;5090699;28;19939;-80
2022/01/24 10:23:11;;;;;;;;;;;;;;;5.30;74.83;103462.94;5092262;28;19920;-80
2022/01/24 10:25:51;;;;;;;;;;;;;;;5.23;75.13;103461.09;5088771;28;19920;-80
2022/01/24 10:28:32;;;;;;;;;;;;;;;4.91;76.63;103477.00;5089823;28;19920;-80
2022/01/24 10:31:13;;;;;;;;;;;;;;;4.84;77.52;103477.75;5089898;28;20377;-80
2022/01/24 10:33:55;;;;;;;;;;;;;;;4.76;76.85;103475.84;5088337;28;20967;-81
2022/01/24 10:36:35;;;;;;;;;;;;;;;4.72;77.13;103475.75;5089322;28;19924;-82
2022/01/24 10:39:18;;;;;;;;;;;;;;;4.67;77.47;103480.84;5090004;28;19978;-80
2022/01/24 10:44:27;;;;;;;;;;;;;;;5.12;77.54;103481.75;5087149;28;19960;-82
2022/01/24 10:46:52;;;;;;;;;;;;;;;5.27;75.81;103473.34;5088297;28;19970;-83
2022/01/24 10:49:30;;;;;;;;;;;;;;;5.17;76.27;103476.63;5088190;28;19951;-80
2022/01/24 10:52:07;;;;;;;;;;;;;;;5.15;76.71;103478.31;5088970;28;19916;-82
2022/01/24 10:54:32;;;;;;;;;;;;;;;5.03;76.07;103476.34;5087869;28;20066;-80
2022/01/24 10:56:58;;;;;;;;;;;;;;;5.10;75.66;103471.28;5086464;28;19920;-80
2022/01/24 10:59:24;;;;;;;;;;;;;;;5.11;75.54;103469.56;5086579;28;20353;-82
2022/01/24 11:02:06;;;;;;;;;;;;;;;5.04;75.96;103467.69;5087992;28;19925;-80
2022/01/24 11:04:33;;;;;;;;;;;;;;;5.00;76.51;103468.50;5074510;28;19916;-80
2022/01/24 11:07:01;;;;;;;;;;;;;;;4.91;76.26;103462.22;5110530;28;19980;-80
2022/01/24 11:09:28;;;;;;;;;;;;;;;4.81;76.18;103462.91;5111801;28;19916;-82
2022/01/24 11:12:11;;;;;;;;;;;;;;;4.80;76.77;103458.53;5108907;28;20350;-82
2022/01/24 11:14:37;;;;;;;;;;;;;;;4.95;76.21;103464.06;5108471;28;20369;-81
2022/01/24 11:17:03;;;;;;;;;;;;;;;4.91;76.01;103458.75;5110597;28;19928;-79
2022/01/24 11:22:19;;;;;;;;;;;;;;;4.93;76.36;103457.94;5087843;28;20639;-81
2022/01/24 11:24:52;;;;;;;;;;;;;;;4.99;76.41;103461.53;5103606;28;19924;-81
2022/01/24 11:27:17;;;;;;;;;;;;;;;4.97;76.16;103458.00;5095738;28;19931;-81
2022/01/24 11:29:43;;;;;;;;;;;;;;;5.00;76.38;103445.03;5092132;28;19916;-80
2022/01/24 11:32:24;;;;;;;;;;;;;;;5.01;76.80;103446.81;5103352;28;20296;-82
2022/01/24 11:34:50;;;;;;;;;;;;;;;5.07;75.92;103442.56;5091270;28;19920;-81
2022/01/24 11:37:31;;;;;;;;;;;;;;;5.03;75.46;103439.88;5068941;28;19917;-80
2022/01/24 11:39:56;;;;;;;;;;;;;;;5.03;75.96;103442.47;5069785;28;19936;-79
2022/01/24 11:42:37;;;;;;;;;;;;;;;5.01;75.67;103436.38;5068440;28;19916;-81
2022/01/24 11:45:18;;;;;;;;;;;;;;;4.95;75.68;103438.00;5071589;28;19916;-81
2022/01/24 11:47:45;;;;;;;;;;;;;;;5.01;75.60;103434.63;5089932;28;19921;-80
2022/01/24 11:50:25;;;;;;;;;;;;;;;5.26;74.36;103429.88;5100065;27;19951;-84
2022/01/24 11:52:51;;;;;;;;;;;;;;;5.44;74.08;103431.94;5103921;28;19969;-83
2022/01/24 11:55:31;;;;;;;;;;;;;;;5.48;73.62;103432.84;5088231;28;19939;-84
2022/01/24 11:58:11;;;;;;;;;;;;;;;5.20;73.84;103428.03;5090757;28;19924;-84
2022/01/24 12:00:54;;;;;;;;;;;;;;;5.15;74.12;103427.06;5071028;28;19920;-83
2022/01/24 12:03:35;;;;;;;;;;;;;;;5.12;74.43;103427.03;5108993;28;20022;-85
2022/01/24 12:06:09;;;;;;;;;;;;;;;5.27;74.95;103429.03;5109773;27;19919;-81
2022/01/24 12:08:36;;;;;;;;;;;;;;;5.45;74.18;103415.44;5102825;28;19953;-85
2022/01/24 12:11:19;;;;;;;;;;;;;;;5.49;73.86;103417.22;5107399;28;19923;-85
2022/01/24 12:13:46;;;;;;;;;;;;;;;5.58;73.68;103419.09;5092628;27;20297;-85
2022/01/24 12:16:13;;;;;;;;;;;;;;;5.70;72.91;103413.19;5086544;28;20007;-85
2022/01/24 12:18:38;;;;;;;;;;;;;;;5.82;73.98;103415.13;5083667;28;20074;-85
2022/01/24 12:21:19;;;;;;;;;;;;;;;5.90;73.22;103408.28;5083801;28;20519;-84
2022/01/24 12:23:46;;;;;;;;;;;;;;;5.86;72.08;103401.25;5083230;28;19918;-85
2022/01/24 12:26:26;;;;;;;;;;;;;;;5.91;72.09;103407.44;5068345;28;20447;-85
2022/01/24 12:29:07;;;;;;;;;;;;;;;5.88;72.37;103402.16;5067697;28;20326;-85
2022/01/24 12:31:48;;;;;;;;;;;;;;;5.84;72.06;103401.25;5066785;28;20377;-85
2022/01/24 12:34:15;;;;;;;;;;;;;;;5.87;72.50;103398.69;5073852;28;19987;-85
2022/01/24 12:39:38;;;;;;;;;;;;;;;5.81;72.39;103397.72;5076798;28;19932;-85
2022/01/24 12:42:11;;;;;;;;;;;;;;;5.77;71.79;103393.28;5049085;28;19924;-84
2022/01/24 12:47:18;;;;;;;;;;;;;;;5.78;71.96;103393.34;5049174;28;19921;-85
2022/01/24 12:49:45;;;;;;;;;;;;;;;5.93;72.00;103384.84;5048613;28;20530;-84
2022/01/24 12:52:12;;;;;;;;;;;;;;;5.86;71.41;103383.88;5049157;28;19921;-86
2022/01/24 12:54:39;;;;;;;;;;;;;;;5.87;72.01;103380.41;5061406;28;19917;-83
2022/01/24 12:57:06;;;;;;;;;;;;;;;5.96;71.05;103381.41;5067510;28;19916;-84
2022/01/24 12:59:32;;;;;;;;;;;;;;;5.88;71.91;103383.91;5068994;28;19932;-82
2022/01/24 13:02:00;;;;;;;;;;;;;;;5.82;71.46;103386.44;5070370;28;19967;-83
2022/01/24 13:04:41;;;;;;;;;;;;;;;5.87;71.68;103380.41;5078767;28;19920;-82
2022/01/24 13:07:08;;;;;;;;;;;;;;;5.83;71.08;103370.78;5072045;28;20378;-83
2022/01/24 13:09:34;;;;;;;;;;;;;;;5.96;71.08;103378.78;5078791;28;19944;-84
2022/01/24 13:12:04;;;;;;;;;;;;;;;5.96;70.79;103370.97;5087309;28;20403;-83
2022/01/24 13:25:22;;;;;;;;;;;;;;;5.83;69.84;103357.75;5069467;28;19916;-84
2022/01/24 13:27:50;;;;;;;;;;;;;;;5.69;71.25;103365.38;5068423;28;20544;-85
2022/01/24 13:30:31;;;;;;;;;;;;;;;5.64;71.97;103363.56;5070615;28;19917;-83
2022/01/24 13:33:12;;;;;;;;;;;;;;;5.53;72.08;103366.00;5067484;28;19917;-84
2022/01/24 13:35:53;;;;;;;;;;;;;;;5.54;71.98;103365.13;5065717;28;19916;-83
2022/01/24 13:38:20;;;;;;;;;;;;;;;5.50;72.36;103365.97;5071601;28;19963;-83
2022/01/24 13:43:28;;;;;;;;;;;;;;;5.67;72.34;103366.22;5071328;28;20580;-83
2022/01/24 13:45:54;;;;;;;;;;;;;;;5.73;71.99;103353.25;5071284;28;19920;-82
2022/01/24 13:48:21;;;;;;;;;;;;;;;5.93;71.21;103348.31;5071604;28;20605;-83
2022/01/24 13:51:01;;;;;;;;;;;;;;;5.97;70.85;103339.66;5072072;28;19925;-83
2022/01/24 13:53:42;;;;;;;;;;;;;;;5.90;71.30;103331.75;5071372;28;19916;-83
2022/01/24 13:56:23;;;;;;;;;;;;;;;5.90;70.20;103330.00;5068634;28;19923;-82
2022/01/24 13:59:04;;;;;;;;;;;;;;;5.72;71.08;103341.97;5071073;28;19966;-82
2022/01/24 14:01:29;;;;;;;;;;;;;;;5.67;70.87;103341.00;5071077;28;20023;-81
2022/01/24 14:03:56;;;;;;;;;;;;;;;5.76;71.30;103352.41;5071903;28;20007;-82
2022/01/24 14:06:21;;;;;;;;;;;;;;;5.50;71.54;103355.53;5070744;28;20266;-84
2022/01/24 14:08:46;;;;;;;;;;;;;;;5.67;71.99;103354.03;5071375;28;19923;-82
2022/01/24 14:11:14;;;;;;;;;;;;;;;5.56;72.99;103358.22;5069024;28;19917;-83
2022/01/24 14:13:40;;;;;;;;;;;;;;;5.38;73.47;103364.91;5072239;28;20388;-84
2022/01/24 14:16:12;;;;;;;;;;;;;;;5.26;73.31;103360.38;5073354;28;19970;-82
2022/01/24 14:18:37;;;;;;;;;;;;;;;5.36;72.18;103353.59;5076844;28;20341;-83
2022/01/24 14:21:18;;;;;;;;;;;;;;;5.32;73.16;103356.97;5087247;28;20004;-83
2022/01/24 14:23:50;;;;;;;;;;;;;;;5.09;73.71;103352.25;5101430;27;19923;-81
2022/01/24 14:26:17;;;;;;;;;;;;;;;5.02;73.74;103342.59;5097967;28;20646;-82
2022/01/24 14:28:43;;;;;;;;;;;;;;;5.17;73.96;103338.50;5102311;28;19916;-82
2022/01/24 14:33:49;;;;;;;;;;;;;;;5.26;73.27;103341.25;5101213;27;19931;-81
2022/01/24 14:36:16;;;;;;;;;;;;;;;5.39;73.67;103331.88;5088478;28;19924;-83
2022/01/24 14:38:42;;;;;;;;;;;;;;;5.26;72.93;103323.88;5093962;28;19935;-83
2022/01/24 14:41:08;;;;;;;;;;;;;;;5.16;73.32;103321.13;5088287;28;20003;-84
2022/01/24 14:46:17;;;;;;;;;;;;;;;5.12;74.13;103338.44;5088385;28;19927;-78
2022/01/24 14:48:42;;;;;;;;;;;;;;;5.20;75.51;103342.03;5091968;28;19916;-78
2022/01/24 14:51:07;;;;;;;;;;;;;;;5.28;72.75;103330.84;5087842;28;19926;-79
2022/01/24 14:53:34;;;;;;;;;;;;;;;5.11;74.37;103331.47;5102707;28;19922;-79
2022/01/24 14:55:59;;;;;;;;;;;;;;;5.13;73.23;103327.13;5096623;28;20363;-78
2022/01/24 14:58:25;;;;;;;;;;;;;;;4.97;73.63;103339.03;5089652;28;19927;-78
2022/01/24 15:00:50;;;;;;;;;;;;;;;5.04;73.61;103334.81;5089412;28;19923;-78
2022/01/24 15:03:16;;;;;;;;;;;;;;;5.05;73.79;103336.56;5089027;28;19924;-78
2022/01/24 15:05:41;;;;;;;;;;;;;;;4.92;73.40;103336.34;5088621;28;19946;-78
2022/01/24 15:08:06;;;;;;;;;;;;;;;4.82;74.53;103341.38;5089673;28;19920;-78
2022/01/24 15:10:32;;;;;;;;;;;;;;;4.94;74.31;103339.84;5092626;28;19916;-78
2022/01/24 15:13:03;;;;;;;;;;;;;;;4.61;75.45;103345.34;5099521;28;20555;-78
2022/01/24 15:15:31;;;;;;;;;;;;;;;4.78;75.00;103343.91;5109714;28;20006;-78
2022/01/24 15:25:43;;;;;;;;;;;;;;;4.73;75.41;103356.00;5098901;27;19924;-78
2022/01/24 15:28:08;;;;;;;;;;;;;;;4.75;75.07;103353.41;5091944;28;19916;-83
2022/01/24 15:30:35;;;;;;;;;;;;;;;4.64;75.87;103353.19;5092483;28;19916;-83
2022/01/24 15:33:00;;;;;;;;;;;;;;;4.63;75.22;103359.28;5090118;28;20429;-80
2022/01/24 15:35:26;;;;;;;;;;;;;;;4.45;76.23;103372.81;5100132;28;19999;-78
2022/01/24 15:37:52;;;;;;;;;;;;;;;4.51;76.60;103372.06;5099756;27;19916;-78
2022/01/24 15:40:19;;;;;;;;;;;;;;;4.48;76.66;103381.56;5105987;27;19924;-79